Time;durP1;ratioP1;P1;durP2;ratioP2;P2;SDS_P1;SDS_P2;PMS_P1;PMS_P2;Temp;Humidity;BMP_temperature;BMP_pressure;BME280_temperature;BME280_humidity;BME280_pressure;Samples;Min_cycle;Max_cycle;Signal;HPM_P1;HPM_P2
2021/04/14 00:00:49;;;;;;;11.10;1.92;;;;;;;6.22;86.44;102275.91;4977493;28;20039;-75
2021/04/14 00:03:28;;;;;;;11.48;2.03;;;;;;;6.34;85.73;102284.34;4973283;28;20026;-75
2021/04/14 00:05:54;;;;;;;7.15;1.67;;;;;;;6.43;84.97;102279.94;4974441;28;20452;-74
2021/04/14 00:08:20;;;;;;;13.27;1.85;;;;;;;6.30;85.43;102286.78;4968303;28;20062;-74
2021/04/14 00:10:46;;;;;;;9.90;1.95;;;;;;;6.34;85.37;102281.66;4955663;28;20066;-74
2021/04/14 00:13:15;;;;;;;14.77;2.10;;;;;;;6.18;85.69;102289.06;4973971;28;20035;-75
2021/04/14 00:15:45;;;;;;;17.70;2.30;;;;;;;6.14;86.24;102280.00;4970852;28;20031;-74
2021/04/14 00:18:12;;;;;;;8.10;1.70;;;;;;;6.15;85.48;102283.50;4970182;28;20058;-74
2021/04/14 00:20:37;;;;;;;8.40;1.45;;;;;;;6.18;85.50;102281.03;4973145;28;20127;-75
2021/04/14 00:23:04;;;;;;;12.98;2.13;;;;;;;6.16;85.98;102282.38;4969252;28;20551;-74
2021/04/14 00:25:32;;;;;;;8.60;1.60;;;;;;;6.16;86.18;102277.03;4973538;28;20050;-74
2021/04/14 00:27:58;;;;;;;8.88;2.20;;;;;;;6.05;86.95;102276.38;4971830;28;20027;-75
2021/04/14 00:30:25;;;;;;;5.85;1.63;;;;;;;6.06;86.84;102271.81;4973183;28;20442;-74
2021/04/14 00:32:51;;;;;;;13.13;2.28;;;;;;;6.24;86.27;102268.41;4955874;28;20053;-74
2021/04/14 00:35:18;;;;;;;9.27;1.77;;;;;;;6.25;86.08;102272.69;4974253;28;20155;-74
2021/04/14 00:37:44;;;;;;;5.88;1.60;;;;;;;6.11;86.36;102283.25;4954653;28;20027;-74
2021/04/14 00:40:14;;;;;;;11.18;2.15;;;;;;;5.95;87.37;102283.69;4980825;28;20416;-75
2021/04/14 00:42:40;;;;;;;12.00;2.30;;;;;;;5.91;87.86;102278.13;4970937;28;20498;-74
2021/04/14 00:45:07;;;;;;;10.32;2.22;;;;;;;5.98;87.18;102281.25;4975565;28;20038;-75
2021/04/14 00:47:33;;;;;;;14.77;2.70;;;;;;;6.04;87.39;102277.44;4971817;28;20015;-74
2021/04/14 00:49:58;;;;;;;7.75;1.90;;;;;;;6.01;87.19;102285.25;4972035;28;20034;-75
2021/04/14 00:52:25;;;;;;;9.10;2.00;;;;;;;5.99;87.49;102279.38;4986199;28;20129;-74
2021/04/14 00:54:51;;;;;;;10.60;2.17;;;;;;;5.76;88.12;102283.59;4956037;28;20046;-74
2021/04/14 00:57:16;;;;;;;7.07;2.10;;;;;;;5.72;89.15;102277.22;4972986;28;20162;-74
2021/04/14 00:59:41;;;;;;;12.38;2.13;;;;;;;5.81;89.92;102278.19;4969923;28;20034;-75
2021/04/14 01:02:08;;;;;;;10.00;2.05;;;;;;;6.01;88.51;102282.56;4970997;28;20023;-74
2021/04/14 01:04:34;;;;;;;9.10;2.30;;;;;;;5.87;89.39;102284.31;4972836;28;20031;-75
2021/04/14 01:07:00;;;;;;;13.27;2.50;;;;;;;6.01;89.81;102285.25;4972581;28;20026;-75
2021/04/14 01:09:26;;;;;;;13.63;2.67;;;;;;;5.95;89.89;102286.38;4954688;28;20039;-75
2021/04/14 01:11:54;;;;;;;8.60;2.90;;;;;;;6.06;89.19;102285.16;4972765;28;20039;-75
2021/04/14 01:14:19;;;;;;;13.35;2.63;;;;;;;6.06;89.16;102287.84;4972866;28;20035;-75
2021/04/14 01:16:45;;;;;;;10.80;3.00;;;;;;;5.81;89.80;102285.41;4965710;28;20550;-74
2021/04/14 01:19:10;;;;;;;16.05;3.03;;;;;;;5.57;91.23;102284.56;4973807;28;20062;-75
2021/04/14 01:21:42;;;;;;;12.05;3.20;;;;;;;5.83;89.97;102285.91;4976083;28;20043;-75
2021/04/14 01:24:14;;;;;;;14.18;3.22;;;;;;;5.80;89.26;102289.97;4971672;28;20030;-75
2021/04/14 01:26:40;;;;;;;10.43;2.97;;;;;;;5.90;89.45;102283.75;4970857;28;20045;-74
2021/04/14 01:29:07;;;;;;;11.63;3.53;;;;;;;5.70;89.99;102283.91;4968459;28;20034;-75
2021/04/14 01:31:33;;;;;;;13.40;3.65;;;;;;;5.76;90.09;102282.78;4973093;28;20038;-76
2021/04/14 01:34:04;;;;;;;10.48;3.63;;;;;;;5.80;89.59;102284.63;4968221;28;20126;-76
2021/04/14 01:36:29;;;;;;;15.95;3.50;;;;;;;5.83;90.01;102275.22;4955710;28;20038;-76
2021/04/14 01:38:55;;;;;;;14.27;3.60;;;;;;;5.73;90.50;102278.00;4968594;28;20297;-74
2021/04/14 01:41:20;;;;;;;8.38;3.70;;;;;;;5.59;91.57;102285.88;4954790;28;20093;-75
2021/04/14 01:43:46;;;;;;;11.50;3.70;;;;;;;5.62;91.28;102287.19;4951433;28;20348;-75
2021/04/14 01:46:12;;;;;;;10.13;3.50;;;;;;;5.27;93.09;102280.25;4971270;28;20031;-74
2021/04/14 01:48:37;;;;;;;14.07;3.40;;;;;;;5.44;92.79;102281.44;4972516;28;20055;-75
2021/04/14 01:51:03;;;;;;;9.82;3.28;;;;;;;5.07;93.31;102283.88;4969273;28;20145;-75
2021/04/14 01:53:28;;;;;;;11.35;3.10;;;;;;;5.52;91.62;102277.38;4966008;28;20037;-75
2021/04/14 01:55:54;;;;;;;13.02;3.20;;;;;;;5.47;92.01;102288.94;4972292;28;20372;-74
2021/04/14 01:58:20;;;;;;;11.13;2.97;;;;;;;5.56;90.96;102278.41;4963103;28;20058;-74
2021/04/14 02:00:56;;;;;;;13.27;3.53;;;;;;;5.56;90.81;102282.94;4954543;28;20089;-74
2021/04/14 02:03:24;;;;;;;16.05;4.05;;;;;;;5.36;91.97;102287.38;4954760;28;20399;-75
2021/04/14 02:05:50;;;;;;;10.60;3.10;;;;;;;5.37;92.01;102281.00;4962941;28;20116;-75
2021/04/14 02:08:17;;;;;;;10.73;3.15;;;;;;;5.34;91.98;102275.41;4971175;28;20145;-76
2021/04/14 02:10:43;;;;;;;15.32;3.45;;;;;;;5.27;92.08;102275.72;4972141;28;20146;-74
2021/04/14 02:13:15;;;;;;;19.45;3.78;;;;;;;5.18;92.97;102274.72;4972134;28;20055;-75
2021/04/14 02:15:41;;;;;;;15.95;3.85;;;;;;;5.08;93.50;102282.81;4964415;28;20047;-74
2021/04/14 02:18:06;;;;;;;18.33;3.38;;;;;;;5.13;93.48;102276.63;4975027;28;20160;-76
2021/04/14 02:20:33;;;;;;;10.45;3.63;;;;;;;4.96;94.17;102278.88;4977787;28;20108;-74
2021/04/14 02:23:09;;;;;;;17.60;3.38;;;;;;;5.09;93.96;102283.59;4968131;28;20026;-74
2021/04/14 02:25:34;;;;;;;18.58;3.38;;;;;;;4.91;94.32;102279.72;4971372;28;20053;-75
2021/04/14 02:28:00;;;;;;;16.40;3.33;;;;;;;4.85;94.86;102286.16;4968781;28;20130;-75
2021/04/14 02:30:27;;;;;;;10.38;3.53;;;;;;;4.93;94.96;102285.56;4971333;28;20031;-73
2021/04/14 02:32:53;;;;;;;14.45;3.72;;;;;;;4.90;94.95;102277.28;4970792;28;20054;-75
2021/04/14 02:35:20;;;;;;;11.32;3.40;;;;;;;4.83;94.60;102274.16;4966165;28;20539;-75
2021/04/14 02:37:45;;;;;;;15.20;3.83;;;;;;;4.56;96.29;102277.22;4967764;28;20019;-76
2021/04/14 02:40:12;;;;;;;13.18;3.38;;;;;;;4.54;96.42;102282.03;4971573;28;20399;-76
2021/04/14 02:42:40;;;;;;;11.30;3.63;;;;;;;4.78;95.62;102268.84;4971495;28;20366;-75
2021/04/14 02:45:07;;;;;;;17.25;3.75;;;;;;;4.56;95.81;102262.03;4969770;28;20491;-74
2021/04/14 02:47:32;;;;;;;12.07;3.75;;;;;;;4.62;95.80;102268.13;4970984;28;20030;-75
2021/04/14 02:49:58;;;;;;;8.95;3.42;;;;;;;4.53;95.67;102275.09;4971856;28;20102;-75
2021/04/14 02:52:23;;;;;;;13.23;3.88;;;;;;;4.65;95.23;102267.56;4965622;28;20035;-75
2021/04/14 02:54:49;;;;;;;11.80;3.63;;;;;;;4.78;94.62;102271.53;4967878;28;20037;-75
2021/04/14 02:57:15;;;;;;;12.65;3.63;;;;;;;4.59;95.52;102258.81;4971034;28;20037;-75
2021/04/14 02:59:40;;;;;;;16.85;3.67;;;;;;;4.59;95.97;102258.00;4971609;28;20122;-75
2021/04/14 03:02:06;;;;;;;15.48;4.07;;;;;;;4.60;95.38;102259.59;4971828;28;20534;-74
2021/04/14 03:04:32;;;;;;;16.58;3.70;;;;;;;4.53;95.52;102259.91;4949510;28;20038;-73
2021/04/14 03:06:58;;;;;;;11.10;3.92;;;;;;;4.50;96.26;102257.78;4970542;28;20455;-75
2021/04/14 03:09:24;;;;;;;17.88;3.80;;;;;;;4.33;96.09;102261.88;4966866;28;20123;-75
2021/04/14 03:11:49;;;;;;;8.50;3.42;;;;;;;4.25;97.69;102259.75;4970669;28;20038;-75
2021/04/14 03:14:14;;;;;;;13.48;3.90;;;;;;;4.06;97.57;102256.09;4971517;28;20022;-74
2021/04/14 03:16:40;;;;;;;10.25;3.30;;;;;;;4.25;97.76;102257.09;4971853;28;20463;-76
2021/04/14 03:19:05;;;;;;;7.10;3.17;;;;;;;4.17;97.76;102261.13;4968391;28;20117;-75
2021/04/14 03:21:31;;;;;;;10.00;3.17;;;;;;;4.10;97.87;102254.50;4967188;28;20022;-75
2021/04/14 03:23:57;;;;;;;9.15;3.60;;;;;;;4.21;97.75;102256.03;4970990;28;20042;-74
2021/04/14 03:26:23;;;;;;;16.67;3.90;;;;;;;3.61;98.41;102259.66;4970219;28;20089;-75
2021/04/14 03:28:48;;;;;;;6.68;2.85;;;;;;;3.61;99.57;102263.13;4950293;28;20407;-75
2021/04/14 03:31:15;;;;;;;10.70;3.20;;;;;;;3.51;100.00;102263.13;4970603;28;20030;-75
2021/04/14 03:33:40;;;;;;;12.30;3.83;;;;;;;3.46;100.00;102260.47;4968508;28;20030;-75
2021/04/14 03:36:06;;;;;;;10.43;3.05;;;;;;;3.34;100.00;102259.13;4969623;28;20042;-75
2021/04/14 03:38:32;;;;;;;12.05;3.22;;;;;;;3.29;100.00;102265.25;4973855;28;20407;-74
2021/04/14 03:40:58;;;;;;;13.85;3.30;;;;;;;3.04;100.00;102259.91;4971607;28;20030;-75
2021/04/14 03:43:23;;;;;;;12.80;3.10;;;;;;;3.12;100.00;102262.03;4969020;28;20050;-75
2021/04/14 03:45:50;;;;;;;9.38;3.60;;;;;;;3.27;100.00;102264.69;4971234;28;20174;-74
2021/04/14 03:48:15;;;;;;;11.35;3.50;;;;;;;2.88;100.00;102266.28;4964418;28;20063;-75
2021/04/14 03:50:40;;;;;;;10.93;3.10;;;;;;;3.14;100.00;102270.56;4970080;28;20034;-74
2021/04/14 03:53:11;;;;;;;13.73;3.88;;;;;;;3.34;100.00;102270.59;4962209;28;20097;-75
2021/04/14 03:55:37;;;;;;;8.83;3.37;;;;;;;3.07;100.00;102274.53;4973187;28;20065;-75
2021/04/14 03:58:02;;;;;;;8.85;3.55;;;;;;;3.24;100.00;102270.56;4972361;28;20380;-75
2021/04/14 04:00:28;;;;;;;10.77;3.67;;;;;;;2.98;100.00;102260.94;4969817;28;20407;-74
2021/04/14 04:02:53;;;;;;;10.27;3.45;;;;;;;2.84;100.00;102267.06;4958562;28;20043;-74
2021/04/14 04:05:19;;;;;;;10.48;3.47;;;;;;;3.07;100.00;102255.91;4969962;28;20035;-74
2021/04/14 04:07:44;;;;;;;13.40;4.07;;;;;;;3.10;100.00;102271.34;4971225;28;20379;-75
2021/04/14 04:10:10;;;;;;;11.25;3.85;;;;;;;3.17;100.00;102272.72;4970619;28;20043;-75
2021/04/14 04:12:36;;;;;;;15.73;3.95;;;;;;;3.26;100.00;102267.63;4974530;28;20062;-75
2021/04/14 04:15:04;;;;;;;13.25;3.63;;;;;;;3.23;100.00;102273.50;4970847;28;20039;-75
2021/04/14 04:17:29;;;;;;;10.90;3.95;;;;;;;3.26;100.00;102276.44;4971975;28;20498;-75
2021/04/14 04:19:55;;;;;;;10.35;4.03;;;;;;;3.39;100.00;102273.22;4974413;28;20033;-75
2021/04/14 04:22:20;;;;;;;11.02;3.17;;;;;;;3.19;100.00;102272.44;4971169;28;20127;-74
2021/04/14 04:24:49;;;;;;;19.15;4.32;;;;;;;3.30;100.00;102277.50;4974334;28;20027;-75
2021/04/14 04:27:15;;;;;;;15.75;3.95;;;;;;;3.42;100.00;102269.25;4937698;28;20027;-74
2021/04/14 04:29:41;;;;;;;14.98;4.07;;;;;;;3.59;100.00;102270.56;4972322;28;20118;-74
2021/04/14 04:32:07;;;;;;;6.60;3.72;;;;;;;3.68;98.96;102276.13;4956664;28;20477;-75
2021/04/14 04:34:32;;;;;;;15.00;4.13;;;;;;;3.68;99.01;102284.94;4979753;28;20092;-74
2021/04/14 04:36:58;;;;;;;10.90;4.15;;;;;;;3.29;99.59;102281.22;4969267;28;20474;-75
2021/04/14 04:39:24;;;;;;;11.48;3.95;;;;;;;3.17;100.00;102280.69;4973559;28;20041;-75
2021/04/14 04:41:49;;;;;;;11.85;3.97;;;;;;;3.06;100.00;102286.25;4973748;28;20031;-75
2021/04/14 04:44:15;;;;;;;16.45;4.35;;;;;;;3.14;100.00;102293.69;4973231;28;20027;-74
2021/04/14 04:46:40;;;;;;;13.43;4.50;;;;;;;2.78;100.00;102290.19;4966035;28;20027;-74
2021/04/14 04:49:06;;;;;;;9.90;4.13;;;;;;;2.77;100.00;102283.25;4970487;28;20062;-75
2021/04/14 04:51:31;;;;;;;17.17;4.70;;;;;;;2.65;100.00;102282.69;4973093;28;20023;-74
2021/04/14 04:53:57;;;;;;;9.60;4.30;;;;;;;2.72;100.00;102285.91;4974263;28;20031;-74
2021/04/14 04:56:22;;;;;;;14.70;4.15;;;;;;;2.90;100.00;102281.97;4973009;28;20018;-74
2021/04/14 04:58:48;;;;;;;10.40;4.35;;;;;;;2.80;100.00;102289.91;4973835;28;20027;-75
2021/04/14 05:01:14;;;;;;;15.93;4.63;;;;;;;2.85;100.00;102284.59;4971199;28;20034;-74
2021/04/14 05:03:39;;;;;;;14.55;4.82;;;;;;;3.20;100.00;102292.66;4971840;28;20027;-75
2021/04/14 05:06:05;;;;;;;13.80;4.95;;;;;;;3.19;100.00;102291.06;4974345;28;20031;-74
2021/04/14 05:08:31;;;;;;;17.55;4.90;;;;;;;3.35;100.00;102295.31;4973092;28;20038;-75
2021/04/14 05:10:56;;;;;;;11.73;5.07;;;;;;;3.64;100.00;102291.84;4972201;28;20402;-75
2021/04/14 05:13:22;;;;;;;19.75;5.32;;;;;;;3.84;100.00;102295.56;4969945;28;20042;-75
2021/04/14 05:15:48;;;;;;;18.27;5.07;;;;;;;3.82;100.00;102295.03;4967054;28;20123;-75
2021/04/14 05:18:14;;;;;;;12.30;4.80;;;;;;;4.01;100.00;102298.72;4972871;28;20110;-75
2021/04/14 05:20:40;;;;;;;13.68;5.15;;;;;;;4.12;100.00;102300.31;4946758;28;20492;-75
2021/04/14 05:23:08;;;;;;;14.52;4.75;;;;;;;4.34;99.52;102301.59;4980311;28;20487;-75
2021/04/14 05:25:37;;;;;;;14.95;5.07;;;;;;;4.42;99.03;102297.56;4964377;28;20031;-75
2021/04/14 05:28:05;;;;;;;12.30;5.32;;;;;;;4.25;99.50;102307.75;4985276;28;20146;-75
2021/04/14 05:30:31;;;;;;;14.95;4.43;;;;;;;4.50;98.55;102308.47;4972364;28;20070;-75
2021/04/14 05:32:57;;;;;;;16.17;4.20;;;;;;;4.43;99.56;102301.81;4973770;28;20034;-75
2021/04/14 05:35:23;;;;;;;11.73;4.35;;;;;;;4.44;99.41;102314.06;4973378;28;20132;-75
2021/04/14 05:37:48;;;;;;;14.55;4.07;;;;;;;4.58;99.20;102310.56;4966710;28;20023;-75
2021/04/14 05:40:14;;;;;;;8.63;3.53;;;;;;;4.73;98.23;102317.69;4979755;28;20031;-75
2021/04/14 05:42:43;;;;;;;10.95;3.88;;;;;;;4.87;97.84;102313.34;4973285;28;20408;-75
2021/04/14 05:45:11;;;;;;;10.45;4.05;;;;;;;4.98;97.50;102316.75;4968293;28;20428;-75
2021/04/14 05:47:36;;;;;;;9.73;4.10;;;;;;;5.15;96.65;102315.31;4972299;28;20034;-76
2021/04/14 05:50:04;;;;;;;10.90;4.55;;;;;;;5.04;97.32;102315.66;4955945;28;20039;-75
2021/04/14 05:52:30;;;;;;;10.20;4.32;;;;;;;5.10;98.41;102320.69;4972725;28;20031;-75
2021/04/14 05:54:55;;;;;;;12.98;4.35;;;;;;;5.27;97.82;102313.09;4971558;28;20049;-75
2021/04/14 05:57:21;;;;;;;12.82;4.07;;;;;;;5.47;96.99;102315.63;4972578;28;20046;-75
2021/04/14 05:59:46;;;;;;;10.52;4.15;;;;;;;5.45;97.45;102317.78;4971859;28;20506;-75
2021/04/14 06:02:12;;;;;;;9.35;4.35;;;;;;;5.65;97.71;102319.50;4968120;28;20050;-74
2021/04/14 06:04:37;;;;;;;14.75;3.92;;;;;;;5.99;96.58;102320.28;4965699;28;20035;-74
2021/04/14 06:07:02;;;;;;;10.57;3.45;;;;;;;6.38;95.15;102320.13;4971437;28;20042;-74
2021/04/14 06:09:28;;;;;;;9.25;3.58;;;;;;;6.50;94.91;102328.56;4967617;28;20043;-74
2021/04/14 06:11:53;;;;;;;11.43;3.45;;;;;;;6.65;94.40;102332.91;4974754;28;20035;-75
2021/04/14 06:14:19;;;;;;;12.63;2.78;;;;;;;6.72;92.91;102334.16;4954760;28;20398;-75
2021/04/14 06:16:44;;;;;;;14.00;3.58;;;;;;;6.90;91.66;102333.41;4965034;28;20086;-75
2021/04/14 06:19:11;;;;;;;11.02;2.92;;;;;;;6.71;91.88;102329.91;4963630;28;20331;-75
2021/04/14 06:21:37;;;;;;;12.93;3.65;;;;;;;6.68;92.16;102321.66;4970493;28;20511;-74
2021/04/14 06:24:06;;;;;;;7.30;2.80;;;;;;;6.68;91.58;102337.72;4974863;28;20039;-75
2021/04/14 06:29:27;;;;;;;12.10;3.33;;;;;;;7.02;91.94;102339.13;4968831;28;20042;-75
2021/04/14 06:31:53;;;;;;;7.28;2.63;;;;;;;7.24;90.54;102333.97;4964707;28;20039;-75
2021/04/14 06:34:22;;;;;;;10.27;2.92;;;;;;;7.60;89.55;102336.94;4961904;28;21264;-75
2021/04/14 06:36:49;;;;;;;9.23;3.03;;;;;;;7.68;89.13;102340.81;4962992;28;20364;-75
2021/04/14 06:39:17;;;;;;;7.28;3.40;;;;;;;7.95;87.52;102335.53;4967130;28;20031;-75
2021/04/14 06:42:11;;;;;;;9.43;2.13;;;;;;;8.00;85.63;102343.47;4956554;28;20066;-76
2021/04/14 06:44:50;;;;;;;6.45;2.22;;;;;;;7.95;84.97;102343.56;4959179;28;20113;-75
2021/04/14 06:47:52;;;;;;;7.28;2.30;;;;;;;7.95;83.75;102338.22;4963635;28;20400;-76
2021/04/14 06:50:31;;;;;;;10.75;2.17;;;;;;;7.88;82.75;102335.09;4940308;28;20458;-76
2021/04/14 06:53:05;;;;;;;4.43;1.90;;;;;;;7.68;83.79;102333.56;4970020;28;20034;-75
2021/04/14 06:55:43;;;;;;;9.63;2.67;;;;;;;7.71;83.70;102335.66;4966716;28;20078;-75
2021/04/14 06:58:15;;;;;;;7.25;1.95;;;;;;;7.85;82.29;102341.88;5030932;22;20076;-70
2021/04/14 07:00:45;;;;;;;;;;;;;;;8.03;82.43;102337.53;5008920;28;20034;-70
2021/04/14 07:03:21;;;;;;;6.22;2.15;;;;;;;7.98;82.73;102343.78;5004463;28;21198;-70
2021/04/14 07:05:52;;;;;;;5.75;2.17;;;;;;;8.11;81.69;102342.19;5006800;28;20576;-70
2021/04/14 07:08:19;;;;;;;;;;;;;;;8.06;82.15;102344.97;5009281;28;20068;-70
2021/04/14 07:10:47;;;;;;;8.25;2.13;;;;;;;8.36;82.12;102346.34;5009680;28;19968;-71
2021/04/14 07:13:13;;;;;;;7.28;1.60;;;;;;;8.66;82.18;102332.31;5013176;28;20052;-71
2021/04/14 07:15:39;;;;;;;7.95;1.67;;;;;;;9.27;79.85;102339.84;4994867;28;20042;-70
2021/04/14 07:18:30;;;;;;;6.88;1.70;;;;;;;9.44;77.21;102334.59;5012517;28;20061;-71
2021/04/14 07:21:10;;;;;;;7.05;1.52;;;;;;;9.82;76.00;102330.41;4996431;28;20087;-70
2021/04/14 07:23:46;;;;;;;8.13;1.52;;;;;;;10.03;72.52;102326.09;5010561;28;20037;-70
2021/04/14 07:26:37;;;;;;;6.95;1.05;;;;;;;9.82;70.75;102323.16;4998507;28;20045;-70
2021/04/14 07:29:39;;;;;;;8.32;1.77;;;;;;;9.68;70.38;102324.31;5006583;28;20081;-70
2021/04/14 07:32:16;;;;;;;7.50;1.50;;;;;;;9.56;71.59;102321.41;5009970;28;20687;-70
2021/04/14 07:34:50;;;;;;;6.78;1.33;;;;;;;9.52;71.83;102320.44;5012417;28;20064;-70
2021/04/14 07:37:23;;;;;;;5.80;1.30;;;;;;;9.68;73.10;102310.88;5008001;28;20037;-69
2021/04/14 07:40:06;;;;;;;8.10;1.42;;;;;;;10.00;73.30;102332.13;5011454;28;20083;-70
2021/04/14 07:42:43;;;;;;;7.47;1.92;;;;;;;10.33;71.13;102319.94;5011723;28;20029;-70
2021/04/14 07:45:27;;;;;;;7.45;1.30;;;;;;;10.51;69.42;102312.72;5012379;28;20552;-70
2021/04/14 07:48:05;;;;;;;9.23;1.40;;;;;;;10.74;69.17;102323.03;5011750;28;20362;-70
2021/04/14 07:50:39;;;;;;;8.77;1.58;;;;;;;10.79;67.42;102316.72;5007160;28;20038;-70
2021/04/14 07:53:21;;;;;;;6.72;1.17;;;;;;;10.65;68.35;102316.06;5010159;28;20029;-70
2021/04/14 07:55:59;;;;;;;9.98;1.55;;;;;;;11.22;67.40;102311.38;5010704;28;20036;-70
2021/04/14 07:58:25;;;;;;;6.63;1.25;;;;;;;11.43;65.41;102312.31;4984496;28;20069;-71
2021/04/14 08:00:51;;;;;;;6.97;1.50;;;;;;;11.53;62.88;102314.69;4997349;28;20938;-71
2021/04/14 08:03:43;;;;;;;7.85;1.52;;;;;;;10.79;61.30;102312.13;4999748;28;20117;-71
2021/04/14 08:06:11;;;;;;;12.93;1.10;;;;;;;10.42;63.35;102309.97;4976107;28;20117;-71
2021/04/14 08:08:38;;;;;;;6.72;1.05;;;;;;;10.43;62.56;102314.25;4996625;28;20411;-71
2021/04/14 08:11:26;;;;;;;7.75;1.00;;;;;;;10.66;61.41;102321.16;5001268;28;20061;-71
2021/04/14 08:13:53;;;;;;;7.45;1.30;;;;;;;10.43;61.45;102316.94;5001439;28;20037;-71
2021/04/14 08:16:41;;;;;;;6.72;1.20;;;;;;;10.32;61.33;102320.22;4980496;28;20042;-70
2021/04/14 08:19:33;;;;;;;8.38;1.23;;;;;;;9.94;63.18;102317.19;4998303;28;20041;-70
2021/04/14 08:22:15;;;;;;;3.97;1.30;;;;;;;10.27;63.10;102312.31;5011942;28;20034;-71
2021/04/14 08:24:47;;;;;;;5.45;1.10;;;;;;;10.41;63.91;102307.59;5011102;28;20117;-71
2021/04/14 08:27:12;;;;;;;;;;;;;;;10.90;62.97;102310.72;5011692;28;20037;-71
2021/04/14 08:29:38;;;;;;;7.03;1.20;;;;;;;11.08;60.09;102308.81;5007824;28;19963;-71
2021/04/14 08:32:09;;;;;;;3.42;0.95;;;;;;;11.67;58.63;102309.94;5009721;28;20026;-71
2021/04/14 08:34:35;;;;;;;;;;;;;;;12.04;56.65;102305.69;5012495;28;20037;-71
2021/04/14 08:37:14;;;;;;;7.88;1.10;;;;;;;12.48;53.62;102303.25;5003559;28;20016;-71
2021/04/14 08:39:49;;;;;;;7.35;1.13;;;;;;;12.80;53.75;102298.28;5011839;28;20387;-71
2021/04/14 08:42:23;;;;;;;6.22;0.95;;;;;;;13.27;53.00;102302.41;5012032;28;20030;-71
2021/04/14 08:44:54;;;;;;;7.28;1.02;;;;;;;13.69;52.53;102293.06;5012354;28;20504;-71
2021/04/14 08:47:24;;;;;;;3.50;0.70;;;;;;;13.06;52.06;102301.63;5008502;28;20098;-71
2021/04/14 08:50:15;;;;;;;6.35;1.20;;;;;;;12.87;52.97;102306.66;4999907;28;20040;-71
2021/04/14 08:52:43;;;;;;;3.83;0.90;;;;;;;12.82;52.65;102301.44;4994615;28;20042;-71
2021/04/14 08:55:11;;;;;;;6.68;0.98;;;;;;;12.66;52.92;102306.63;4995194;28;20088;-71
2021/04/14 08:57:37;;;;;;;4.75;1.02;;;;;;;12.28;53.54;102303.19;4999652;28;20046;-71
2021/04/14 09:00:08;;;;;;;5.00;1.10;;;;;;;12.26;55.37;102300.03;4994211;28;20495;-71
2021/04/14 09:02:34;;;;;;;;;;;;;;;12.59;56.80;102309.06;5001753;28;20034;-71
2021/04/14 09:05:02;;;;;;;3.53;1.15;;;;;;;12.35;56.26;102308.91;5011715;28;19913;-71
2021/04/14 09:07:37;;;;;;;3.65;1.30;;;;;;;12.68;57.31;102299.78;5006514;28;20409;-71
2021/04/14 09:10:07;;;;;;;5.43;1.23;;;;;;;12.75;56.34;102291.16;5010784;28;20034;-72
2021/04/14 09:12:42;;;;;;;5.93;1.20;;;;;;;13.01;56.45;102299.06;5011278;28;20445;-71
2021/04/14 09:15:12;;;;;;;7.32;1.30;;;;;;;13.56;54.45;102296.88;4985863;28;20041;-71
2021/04/14 09:17:38;;;;;;;4.03;0.90;;;;;;;13.54;51.85;102294.50;5002624;28;20033;-71
2021/04/14 09:20:18;;;;;;;8.43;1.10;;;;;;;13.95;52.73;102295.47;4988974;28;20022;-72
2021/04/14 09:22:44;;;;;;;3.43;1.20;;;;;;;14.40;50.43;102293.50;5003357;28;20030;-72
2021/04/14 09:25:18;;;;;;;4.80;0.77;;;;;;;14.75;48.58;102286.44;5017253;28;20088;-72
2021/04/14 09:27:49;;;;;;;5.35;1.00;;;;;;;15.10;47.02;102283.97;4986880;28;20048;-71
2021/04/14 09:30:47;;;;;;;3.38;0.98;;;;;;;13.93;46.52;102290.41;5008228;28;20104;-71
2021/04/14 09:33:20;;;;;;;1.65;0.57;;;;;;;13.68;48.45;102290.69;5011371;28;20055;-71
2021/04/14 09:35:49;;;;;;;6.22;0.80;;;;;;;13.56;48.79;102296.88;5009375;28;20037;-71
2021/04/14 09:38:25;;;;;;;4.00;1.00;;;;;;;13.81;48.62;102287.69;4984205;28;20058;-73
2021/04/14 09:40:52;;;;;;;4.47;0.75;;;;;;;14.02;47.68;102290.28;5002481;28;20068;-71
2021/04/14 09:43:26;;;;;;;3.58;0.70;;;;;;;14.13;45.23;102278.66;5000995;28;20457;-71
2021/04/14 09:46:01;;;;;;;3.92;0.70;;;;;;;14.35;45.98;102283.69;5000901;28;20486;-72
2021/04/14 09:48:48;;;;;;;2.42;0.60;;;;;;;14.81;45.70;102279.66;4985630;28;20044;-72
2021/04/14 09:51:32;;;;;;;2.25;0.60;;;;;;;15.21;44.61;102287.78;4986143;28;20490;-71
2021/04/14 09:54:06;;;;;;;4.78;0.90;;;;;;;15.58;43.14;102286.47;4989387;28;20217;-71
2021/04/14 09:56:33;;;;;;;2.88;0.80;;;;;;;15.52;41.86;102287.91;4992118;28;20409;-71
2021/04/14 09:59:09;;;;;;;3.50;0.80;;;;;;;14.92;42.98;102285.41;4992666;28;20021;-72
2021/04/14 10:01:40;;;;;;;4.05;0.80;;;;;;;14.50;43.13;102282.19;4986289;28;20405;-71
2021/04/14 10:04:21;;;;;;;3.50;0.60;;;;;;;13.89;43.33;102278.66;5007915;28;20037;-71
2021/04/14 10:06:49;;;;;;;5.63;0.88;;;;;;;14.03;45.12;102270.22;5008852;28;20367;-73
2021/04/14 10:09:30;;;;;;;3.80;0.95;;;;;;;14.26;46.67;102271.34;5004306;28;20091;-71
2021/04/14 10:12:13;;;;;;;1.80;0.60;;;;;;;14.62;46.70;102274.03;5009767;28;20087;-71
2021/04/14 10:14:53;;;;;;;2.35;0.90;;;;;;;15.10;45.16;102267.69;5009006;28;20073;-72
2021/04/14 10:17:21;;;;;;;3.67;0.60;;;;;;;15.29;43.83;102270.56;5014646;28;20041;-71
2021/04/14 10:19:53;;;;;;;3.58;0.80;;;;;;;15.03;43.18;102270.19;5008765;28;20034;-72
2021/04/14 10:22:29;;;;;;;5.40;1.30;;;;;;;15.09;43.23;102275.06;4988504;28;20121;-71
2021/04/14 10:25:19;;;;;;;4.78;1.15;;;;;;;14.98;44.01;102267.75;5004627;28;20073;-71
2021/04/14 10:27:46;;;;;;;6.65;0.95;;;;;;;14.36;44.38;102258.13;5009400;28;20147;-71
2021/04/14 10:30:20;;;;;;;3.67;1.00;;;;;;;13.86;44.98;102265.78;4992499;28;20088;-71
2021/04/14 10:32:46;;;;;;;5.20;1.00;;;;;;;13.66;46.34;102265.88;5008944;28;20038;-71
2021/04/14 10:35:15;;;;;;;4.82;1.00;;;;;;;13.08;46.77;102256.09;5012010;28;20036;-71
2021/04/14 10:37:44;;;;;;;4.65;0.80;;;;;;;12.83;47.49;102260.56;5003733;28;20073;-71
2021/04/14 10:40:19;;;;;;;4.43;0.90;;;;;;;12.74;48.65;102262.53;5001421;28;20057;-72
2021/04/14 10:42:50;;;;;;;3.53;0.80;;;;;;;12.73;48.86;102260.97;5009234;28;20026;-71
2021/04/14 10:45:18;;;;;;;7.90;1.25;;;;;;;13.05;48.20;102262.16;5004972;28;20635;-71
2021/04/14 10:47:46;;;;;;;5.28;0.90;;;;;;;13.16;47.92;102247.88;5013562;28;20053;-72
2021/04/14 10:50:25;;;;;;;6.95;1.00;;;;;;;12.76;47.67;102248.69;4989267;28;20038;-71
2021/04/14 10:53:03;;;;;;;5.25;0.90;;;;;;;11.76;47.81;102248.63;5003709;28;20440;-71
2021/04/14 10:55:36;;;;;;;4.20;1.30;;;;;;;12.23;49.87;102249.38;5007805;28;20116;-71
2021/04/14 10:58:04;;;;;;;6.65;1.35;;;;;;;12.45;50.73;102244.44;5008637;28;20034;-72
2021/04/14 11:00:34;;;;;;;5.63;1.30;;;;;;;12.68;49.89;102242.22;5009278;28;20124;-71
2021/04/14 11:03:14;;;;;;;10.30;2.05;;;;;;;12.60;49.26;102251.22;4999373;28;20036;-71
2021/04/14 11:05:45;;;;;;;1.50;0.80;;;;;;;12.58;49.22;102248.81;5011426;28;20034;-71
2021/04/14 11:08:13;;;;;;;5.05;0.93;;;;;;;12.64;47.24;102236.69;5005227;28;20483;-72
2021/04/14 11:10:40;;;;;;;3.65;0.80;;;;;;;13.03;45.83;102240.03;5003173;28;20065;-72
2021/04/14 11:13:13;;;;;;;2.90;0.90;;;;;;;12.98;45.50;102234.84;5002036;28;20037;-71
2021/04/14 11:15:42;;;;;;;4.53;0.80;;;;;;;13.12;45.46;102238.88;5008669;28;20046;-71
2021/04/14 11:18:10;;;;;;;5.85;1.00;;;;;;;12.86;45.44;102232.06;5008159;28;20056;-70
2021/04/14 11:20:46;;;;;;;2.78;1.00;;;;;;;13.06;45.18;102232.09;5003160;28;20054;-71
2021/04/14 11:23:21;;;;;;;2.17;0.80;;;;;;;13.26;45.53;102225.03;5006785;28;20046;-72
2021/04/14 11:25:46;;;;;;;2.63;0.90;;;;;;;13.49;45.56;102228.97;5011963;28;20040;-71
2021/04/14 11:28:15;;;;;;;2.38;0.73;;;;;;;13.80;44.99;102223.78;5004361;28;20030;-71
2021/04/14 11:30:48;;;;;;;4.50;1.00;;;;;;;14.54;44.31;102219.97;4976678;28;20045;-71
2021/04/14 11:33:14;;;;;;;2.33;0.65;;;;;;;15.17;41.03;102222.56;5011195;28;20037;-71
2021/04/14 11:35:51;;;;;;;1.75;1.02;;;;;;;15.75;40.74;102231.84;5003382;28;20038;-72
2021/04/14 11:38:39;;;;;;;3.55;0.90;;;;;;;16.34;40.10;102228.94;5005230;28;20041;-71
2021/04/14 11:41:34;;;;;;;4.47;0.80;;;;;;;16.71;38.12;102232.09;5008241;28;20033;-71